• Join FlightAware (Why Join?)
  • Login
  • US Flag 
01:11AM EDT


 

Airport Tracker/Info


-or-


 

Live Flight TrackerFlight Track Log ✈ N70560 ✈ 02-Sep-2013 ✈ KMNE - KTOC

Flight Track Log - Related Links

Times and Time Zones

All times are in EDT time to prevent confusion due to time zone crossing. See the N70560 flight status page for this flight to view local times or setup timezone preferences in your user account.

Time Position Orientation Groundspeed Altitude Reporting Facility
EDT Latitude Longitude Course Direction KTS MPH feet Rate Location/Type
02:05PM 32.7339 -93.2103 33° Northeast 94 108 3,200  Level Fort Worth Center
02:06PM 32.7544 -93.1944 33° Northeast 96 110 3,700 480 Climbing Fort Worth Center
02:07PM 32.7725 -93.1789 36° Northeast 94 108 3,900 420 Climbing Fort Worth Center
02:08PM 32.7950 -93.1606 34° Northeast 94 108 4,400 480 Climbing Fort Worth Center
02:09PM 32.8131 -93.1422 40° Northeast 115 132 4,900 480 Climbing Fort Worth Center
02:10PM 32.8394 -93.1214 34° Northeast 110 127 5,400 480 Climbing Fort Worth Center
02:11PM 32.8639 -93.1003 36° Northeast 104 120 5,900 480 Climbing Fort Worth Center
02:12PM 32.8883 -93.0819 32° Northeast 104 120 6,400 480 Climbing Fort Worth Center
02:13PM 32.9125 -93.0608 36° Northeast 104 120 6,900 480 Climbing Fort Worth Center
02:14PM 32.9389 -93.0397 34° Northeast 104 120 7,400 420 Climbing Fort Worth Center
02:15PM 32.9633 -93.0189 36° Northeast 104 120 7,800 300 Climbing Fort Worth Center
02:16PM 32.9897 -92.9978 34° Northeast 104 120 8,100 360 Climbing Fort Worth Center
02:17PM 33.0139 -92.9767 36° Northeast 104 120 8,600 420 Climbing Fort Worth Center
02:18PM 33.0425 -92.9553 32° Northeast 109 125 9,000 240 Climbing Fort Worth Center
02:19PM 33.0686 -92.9294 40° Northeast 109 125 9,100  Climbing Fort Worth Center
02:20PM 33.0972 -92.9081 32° Northeast 114 131 9,100  Level Fort Worth Center
02:21PM 33.1275 -92.8817 36° Northeast 124 143 9,100  Level Fort Worth Center
02:22PM 33.1558 -92.8578 35° Northeast 124 143 9,100  Level Fort Worth Center
02:23PM 33.1861 -92.8339 33° Northeast 124 143 9,100  Level Fort Worth Center
02:24PM 33.2186 -92.8075 34° Northeast 124 143 9,100  Level Fort Worth Center
02:25PM 33.2469 -92.7836 35° Northeast 124 143 9,100  Level Fort Worth Center
02:26PM 33.2794 -92.7572 34° Northeast 124 143 9,100  Level Fort Worth Center
02:27PM 33.3325 -92.7119 35° Northeast 128 147 9,100  Level Memphis Center
02:28PM 33.3642 -92.6853 35° Northeast 128 147 9,100  Level Memphis Center
02:29PM 33.3961 -92.6589 35° Northeast 128 147 9,100  Level Memphis Center
02:30PM 33.4236 -92.6347 36° Northeast 128 147 9,100  Level Memphis Center
02:31PM 33.4533 -92.6081 37° Northeast 128 147 9,100  Level Memphis Center
02:32PM 33.4850 -92.5839 32° Northeast 128 147 9,100  Level Memphis Center
02:33PM 33.5169 -92.5572 35° Northeast 128 147 9,100  Level Memphis Center
02:34PM 33.5444 -92.5331 36° Northeast 128 147 9,100  Level Memphis Center
02:35PM 33.5742 -92.5089 34° Northeast 128 147 9,100  Level Memphis Center
02:36PM 33.6058 -92.4822 35° Northeast 128 147 9,100  Level Memphis Center
02:37PM 33.6272 -92.4503 51° Northeast 128 147 9,100  Level Memphis Center
02:38PM 33.6528 -92.4136 50° Northeast 128 147 9,200  Climbing Memphis Center
02:39PM 33.6661 -92.3739 68° East 128 147 9,100  Descending Memphis Center
02:40PM 33.6856 -92.3344 59° Northeast 128 147 9,200  Climbing Memphis Center
02:41PM 33.6986 -92.2947 68° East 128 147 9,100  Descending Memphis Center
02:42PM 33.7158 -92.2553 62° Northeast 128 147 9,200  Climbing Memphis Center
02:43PM 33.7375 -92.2156 57° Northeast 134 154 9,100  Descending Memphis Center
02:44PM 33.7422 -92.1683 83° East 134 154 9,200  Climbing Memphis Center
02:45PM 33.7511 -92.1261 76° East 134 154 9,100 -60 Descending Memphis Center
02:46PM 33.7603 -92.0786 77° East 129 148 9,100  Level Memphis Center
02:47PM 33.7692 -92.0364 76° East 129 148 9,100  Level Memphis Center
02:48PM 33.7883 -91.9967 60° Northeast 129 148 9,200  Climbing Memphis Center
02:49PM 33.8036 -91.9597 64° Northeast 129 148 9,100 -60 Descending Memphis Center
02:50PM 33.8186 -91.9172 67° East 129 148 9,100  Level Memphis Center
02:51PM 33.8358 -91.8778 62° Northeast 129 148 9,100  Level Memphis Center
02:52PM 33.8550 -91.8381 60° Northeast 129 148 9,100  Level Memphis Center
02:53PM 33.8703 -91.8008 64° Northeast 129 148 9,100  Level Memphis Center
02:54PM 33.8894 -91.7586 61° Northeast 129 148 9,100  Level Memphis Center
02:55PM 33.9044 -91.7186 66° East 129 148 9,100  Level Memphis Center
02:56PM 33.9194 -91.6789 66° East 129 148 9,100  Level Memphis Center
02:57PM 33.9386 -91.6392 60° Northeast 129 148 9,100  Level Memphis Center
02:58PM 33.9517 -91.6067 64° Northeast 135 155 9,200  Climbing Memphis Center
02:59PM 33.9644 -91.5644 70° East 130 150 9,100 -60 Descending Memphis Center
03:00PM 33.9858 -91.5194 60° Northeast 130 150 9,100  Level Memphis Center
03:01PM 34.0028 -91.4822 61° Northeast 130 150 9,100  Level Memphis Center
03:02PM 34.0158 -91.4422 68° East 130 150 9,200  Climbing Memphis Center
03:03PM 34.0286 -91.3972 71° East 130 150 9,200 -60 Level Memphis Center
03:04PM 34.0394 -91.3625 69° East 130 150 9,100 -60 Descending Memphis Center
03:05PM 34.0481 -91.3122 78° East 130 150 9,100  Level Memphis Center
03:06PM 34.0567 -91.2747 74° East 124 143 9,200 -60 Climbing Memphis Center
03:07PM 34.0592 -91.2247 87° East 124 143 9,000 -120 Descending Memphis Center
03:08PM 34.0678 -91.1847 75° East 124 143 9,000  Level Memphis Center
03:09PM 34.0786 -91.1369 75° East 124 143 9,000  Level Memphis Center
03:10PM 34.0831 -91.0894 84° East 124 143 9,000  Level Memphis Center
03:11PM 34.0936 -91.0469 73° East 124 143 9,000  Level Memphis Center
03:12PM 34.1022 -91.0044 76° East 124 143 9,000  Level Memphis Center
03:13PM 34.1086 -90.9617 80° East 124 143 9,000  Level Memphis Center
03:14PM 34.1172 -90.9192 76° East 124 143 9,000  Level Memphis Center
03:15PM 34.1236 -90.8742 80° East 131 151 9,000  Level Memphis Center
03:16PM 34.1322 -90.8289 77° East 126 145 9,000  Level Memphis Center
03:17PM 34.1386 -90.7864 80° East 126 145 9,000  Level Memphis Center
03:18PM 34.1450 -90.7461 79° East 126 145 9,000  Level Memphis Center
03:19PM 34.1533 -90.7061 76° East 126 145 9,000  Level Memphis Center
03:20PM 34.1597 -90.6583 81° East 135 155 9,000  Level Memphis Center
03:21PM 34.1661 -90.6133 80° East 135 155 9,000  Level Memphis Center
03:22PM 34.1767 -90.5731 72° East 123 142 9,000  Level Memphis Center
03:23PM 34.1808 -90.5253 84° East 128 147 9,000  Level Memphis Center
03:24PM 34.1894 -90.4853 75° East 123 142 9,000  Level Memphis Center
03:25PM 34.1956 -90.4375 81° East 123 142 9,100  Climbing Memphis Center
03:26PM 34.2039 -90.3922 77° East 129 148 9,100  Level Memphis Center
03:27PM 34.2122 -90.3522 76° East 122 140 9,100  Level Memphis Center
03:28PM 34.2186 -90.3069 80° East 122 140 9,100  Level Memphis Center
03:29PM 34.2269 -90.2642 77° East 130 150 9,100  Level Memphis Center
03:30PM 34.2331 -90.2214 80° East 121 139 9,100  Level Memphis Center
03:31PM 34.2394 -90.1789 80° East 128 147 9,100  Level Memphis Center
03:32PM 34.2456 -90.1336 81° East 128 147 9,100  Level Memphis Center
03:33PM 34.2539 -90.0908 77° East 129 148 9,100  Level Memphis Center
03:34PM 34.2600 -90.0481 80° East 129 148 9,100  Level Memphis Center
03:35PM 34.2661 -90.0128 78° East 129 148 9,100  Level Memphis Center
03:36PM 34.2744 -89.9700 77° East 129 148 9,100  Level Memphis Center
03:37PM 34.2806 -89.9247 81° East 123 142 9,100  Level Memphis Center
03:38PM 34.2886 -89.8819 77° East 123 142 9,100  Level Memphis Center
03:39PM 34.2947 -89.8417 80° East 123 142 9,100  Level Memphis Center
03:40PM 34.3008 -89.7964 81° East 123 142 9,100  Level Memphis Center
03:41PM 34.3089 -89.7536 77° East 123 142 9,100  Level Memphis Center
03:42PM 34.3150 -89.7108 80° East 123 142 9,100  Level Memphis Center
03:43PM 34.3231 -89.6631 78° East 123 142 9,100  Level Memphis Center
03:44PM 34.3311 -89.6203 77° East 123 142 9,100  Level Memphis Center
03:45PM 34.3372 -89.5775 80° East 123 142 9,100  Level Memphis Center
03:46PM 34.3431 -89.5319 81° East 123 142 9,100  Level Memphis Center
03:47PM 34.3492 -89.4892 80° East 123 142 9,100  Level Memphis Center
03:48PM 34.3592 -89.4464 74° East 123 142 9,100  Level Memphis Center
03:49PM 34.3653 -89.4036 80° East 123 142 9,100  Level Memphis Center
03:50PM 34.3731 -89.3606 78° East 123 142 9,100  Level Memphis Center
03:51PM 34.3792 -89.3153 81° East 123 142 9,100  Level Memphis Center
03:52PM 34.3850 -89.2750 80° East 123 142 9,100  Level Memphis Center
03:53PM 34.3928 -89.2294 78° East 128 147 9,100  Level Memphis Center
03:54PM 34.3989 -89.1917 79° East 128 147 9,100  Level Memphis Center
03:55PM 34.4047 -89.1464 81° East 128 147 9,100  Level Memphis Center
03:56PM 34.4147 -89.1008 75° East 123 142 9,100  Level Memphis Center
03:57PM 34.4206 -89.0581 81° East 128 147 9,100  Level Memphis Center
03:58PM 34.4261 -89.0150 81° East 128 147 9,100  Level Memphis Center
03:59PM 34.4319 -88.9697 81° East 128 147 9,100  Level Memphis Center
04:00PM 34.4400 -88.9267 77° East 128 147 9,100  Level Memphis Center
04:01PM 34.4475 -88.8761 80° East 128 147 9,100  Level Memphis Center
04:02PM 34.4556 -88.8308 78° East 128 147 9,100 -60 Level Memphis Center
04:03PM 34.4633 -88.7903 77° East 123 142 9,000 -60 Descending Memphis Center
04:04PM 34.4669 -88.7450 84° East 123 142 9,000  Level Memphis Center
04:05PM 34.4767 -88.6994 75° East 123 142 9,000  Level Memphis Center
04:06PM 34.4825 -88.6564 81° East 123 142 9,000  Level Memphis Center
04:07PM 34.4900 -88.6108 79° East 123 142 9,000  Level Memphis Center
04:08PM 34.4956 -88.5653 82° East 123 142 9,000  Level Memphis Center
04:09PM 34.5033 -88.5225 78° East 123 142 9,000  Level Memphis Center
04:10PM 34.5089 -88.4794 81° East 123 142 9,000  Level Memphis Center
04:11PM 34.5167 -88.4339 78° East 123 142 9,000  Level Memphis Center
04:12PM 34.5222 -88.3908 81° East 123 142 9,000  Level Memphis Center
04:13PM 34.5300 -88.3453 78° East 123 142 9,000  Level Memphis Center
04:14PM 34.5353 -88.2997 82° East 123 142 9,000  Level Memphis Center
04:15PM 34.5431 -88.2542 78° East 123 142 9,000  Level Memphis Center
04:16PM 34.5483 -88.2086 82° East 128 147 9,000  Level Memphis Center
04:17PM 34.5497 -88.1658 88° East 128 147 9,100  Climbing Memphis Center
04:18PM 34.5531 -88.1203 85° East 128 147 9,100  Level Memphis Center
04:19PM 34.5522 -88.0725 91° East 128 147 9,100  Level Memphis Center
04:20PM 34.5536 -88.0269 88° East 128 147 9,100  Level Memphis Center
04:21PM 34.5547 -87.9817 88° East 128 147 9,100  Level Memphis Center
04:22PM 34.5581 -87.9361 85° East 128 147 9,100  Level Memphis Center
04:23PM 34.5592 -87.8883 88° East 128 147 9,100  Level Memphis Center
04:24PM 34.5603 -87.8428 88° East 133 153 9,100  Level Memphis Center
04:25PM 34.5614 -87.7947 88° East 133 153 9,100  Level Memphis Center
04:26PM 34.5625 -87.7494 88° East 138 159 9,100  Level Memphis Center
04:27PM 34.5658 -87.7039 85° East 138 159 9,100  Level Memphis Center
04:28PM 34.5647 -87.6561 92° East 138 159 9,100  Level Memphis Center
04:29PM 34.5658 -87.6106 88° East 138 159 9,100  Level Memphis Center
04:30PM 34.5669 -87.5628 88° East 138 159 9,100  Level Memphis Center
04:31PM 34.5700 -87.5172 85° East 138 159 9,100  Level Memphis Center
04:32PM 34.5711 -87.4692 88° East 138 159 9,100  Level Memphis Center
04:33PM 34.5700 -87.4214 92° East 138 159 9,100  Level Memphis Center
04:34PM 34.5728 -87.3733 86° East 138 159 9,100  Level Memphis Center
04:35PM 34.5717 -87.3253 92° East 138 159 9,100  Level Memphis Center
04:36PM 34.5725 -87.2775 89° East 138 159 9,100  Level Memphis Center
04:37PM 34.5736 -87.2294 88° East 138 159 9,100  Level Memphis Center
04:38PM 34.5744 -87.1842 89° East 138 159 9,100  Level Memphis Center
04:39PM 34.5756 -87.1436 88° East 138 159 9,100  Level Memphis Center
04:40PM 34.5761 -87.0881 89° East 143 165 9,100  Level Memphis Center
04:41PM 34.5792 -87.0450 85° East 143 165 9,100  Level Memphis Center
04:42PM 34.5778 -86.9972 92° East 143 165 9,100  Level Memphis Center
04:43PM 34.5808 -86.9492 86° East 143 165 9,100  Level Memphis Center
04:44PM 34.5794 -86.9039 92° East 143 165 9,100  Level Memphis Center
04:45PM 34.5803 -86.8583 89° East 143 165 9,100  Level Memphis Center
04:47PM 34.5806 -86.8118 90° East  Level FlightAware Approximate
04:54PM 34.5823 -86.4917 90° East  Level FlightAware Approximate
04:55PM 34.5825 -86.4460 90° East  Level FlightAware Approximate
04:56PM 34.5827 -86.4003 90° East  Level FlightAware Approximate
04:57PM 34.5828 -86.3545 90° East  Level FlightAware Approximate
04:58PM 34.5830 -86.3088 90° East  Level FlightAware Approximate
04:59PM 34.5831 -86.2631 90° East  Level FlightAware Approximate
04:59PM 34.5906 -86.2442 90° East 127 146 9,100  Level Atlanta Center
05:00PM 34.5831 -86.2173 90° East  Level FlightAware Approximate
05:00PM 34.5933 -86.1986 86° East 127 146 9,100  Level Atlanta Center
05:01PM 34.5832 -86.1716 90° East  Level FlightAware Approximate
05:01PM 34.5942 -86.1508 89° East 127 146 9,100  Level Atlanta Center
05:02PM 34.5833 -86.1259 90° East  Level FlightAware Approximate
05:02PM 34.5931 -86.1028 92° East 127 146 9,100  Level Atlanta Center
05:03PM 34.5917 -86.0575 92° East 133 153 9,100  Level Atlanta Center
05:04PM 34.5944 -86.0094 86° East 133 153 9,100  Level Atlanta Center
05:05PM 34.5953 -85.9642 89° East 138 159 9,100  Level Atlanta Center
05:06PM 34.5939 -85.9161 92° East 138 159 9,100  Level Atlanta Center
05:07PM 34.5947 -85.8708 89° East 138 159 9,100  Level Atlanta Center
05:08PM 34.5956 -85.8153 89° East 145 167 9,100  Level Atlanta Center
05:09PM 34.5961 -85.7750 89° East 140 161 9,100  Level Atlanta Center
05:10PM 34.5967 -85.7269 89° East 140 161 9,100  Level Atlanta Center
05:11PM 34.5972 -85.6789 89° East 140 161 9,100  Level Atlanta Center
05:12PM 34.5978 -85.6336 89° East 140 161 9,100  Level Atlanta Center
05:13PM 34.5986 -85.5881 89° East 135 155 9,100  Level Atlanta Center
05:14PM 34.5992 -85.5428 89° East 135 155 9,100  Level Atlanta Center
05:15PM 34.5975 -85.4947 92° East 135 155 9,100  Level Atlanta Center
05:16PM 34.6003 -85.4494 86° East 140 161 9,100  Level Atlanta Center
05:17PM 34.6006 -85.4014 90° East 140 161 9,100  Level Atlanta Center
05:18PM 34.5992 -85.3536 92° East 140 161 9,100  Level Atlanta Center
05:19PM 34.6017 -85.3106 86° East 140 161 9,100  Level Atlanta Center
05:20PM 34.6000 -85.2628 92° East 140 161 9,100  Level Atlanta Center
05:21PM 34.5983 -85.2172 93° East 140 161 9,100  Level Atlanta Center
05:24PM 34.6017 -85.0786 88° East 230 265 9,100  Level Atlanta Center
05:25PM 34.6022 -85.0356 89° East 167 192 9,100  Level Atlanta Center
05:26PM 34.6025 -84.9878 90° East 138 159 9,100  Level Atlanta Center
05:27PM 34.6028 -84.9397 90° East 138 159 9,100  Level Atlanta Center
05:28PM 34.6011 -84.8967 93° East 138 159 9,100  Level Atlanta Center
05:29PM 34.6014 -84.8489 90° East 138 159 9,100  Level Atlanta Center
05:30PM 34.6039 -84.8033 86° East 138 159 9,100  Level Atlanta Center
05:31PM 34.6019 -84.7556 93° East 138 159 9,100  Level Atlanta Center
05:32PM 34.6022 -84.7125 90° East 138 159 9,100  Level Atlanta Center
05:33PM 34.6025 -84.6672 90° East 143 165 9,100  Level Atlanta Center
05:34PM 34.6006 -84.6217 93° East 138 159 9,100  Level Atlanta Center
05:35PM 34.6008 -84.5764 90° East 133 153 9,100  Level Atlanta Center
05:36PM 34.6011 -84.5308 90° East 133 153 9,100  Level Atlanta Center
05:37PM 34.6011 -84.4856 90° East 133 153 9,200  Climbing Atlanta Center
05:38PM 34.6014 -84.4425 90° East 139 160 9,100 -60 Descending Atlanta Center
05:39PM 34.5994 -84.3997 93° East 139 160 9,100  Level Atlanta Center
05:40PM 34.6017 -84.3517 87° East 139 160 9,100  Level Atlanta Center
05:41PM 34.5994 -84.3089 94° East 139 160 9,100  Level Atlanta Center
05:42PM 34.5997 -84.2633 90° East 139 160 9,100  Level Atlanta Center
05:43PM 34.6019 -84.2181 87° East 139 160 9,100  Level Atlanta Center
05:44PM 34.5997 -84.1675 93° East 139 160 9,100  Level Atlanta Center
05:45PM 34.5978 -84.1247 93° East 134 154 9,100  Level Atlanta Center
05:46PM 34.6000 -84.0817 86° East 129 148 9,100  Level Atlanta Center
05:47PM 34.6000 -84.0389 90° East 129 148 9,100 -300 Level Atlanta Center
05:48PM 34.5978 -83.9908 93° East 124 143 8,500 -660 Descending Atlanta Center
05:49PM 34.5978 -83.9428 90° East 136 157 7,800 -660 Descending Atlanta Center
05:50PM 34.5956 -83.8950 93° East 144 166 7,200 -600 Descending Atlanta Center
05:51PM 34.5975 -83.8494 87° East 139 160 6,600 -540 Descending Atlanta Center
05:52PM 34.5975 -83.8042 90° East 139 160 6,200 -600 Descending Atlanta Center
05:53PM 34.5953 -83.7511 93° East 139 160 5,500 -600 Descending Atlanta Center
05:54PM 34.5953 -83.7058 90° East 139 160 5,000 -300 Descending Atlanta Center
05:55PM 34.5950 -83.6628 90° East 139 160 5,000  Level Atlanta Center
05:56PM 34.5928 -83.6200 94° East 126 145 5,000  Level Atlanta Center
05:57PM 34.5947 -83.5769 87° East 121 139 5,000  Level Atlanta Center